EGPI/ILY METAR and TAF weather

Enter ICAO airport designator
Station Type Date Time Source
EGPI METAR 2020/07/12 19:50 UTC NOAA

EGPI 121950Z AUTO 17012KT 130V200 7000 FEW017/// BKN027/// 14/14 Q1020 RERA


Station Type Date Time Source
EGPI Decoded METAR 2020/07/12 19:50 UTC NOAA

Islay, United Kingdom (EGPI) 55-40-55N 006-15-24W
Jul 12, 2020 - 03:50 PM EDT / 2020.07.12 1950 UTC
Wind: from the S (170 degrees) at 14 MPH (12 KT) (direction variable):0
Visibility: 4 mile(s):0
Sky conditions: mostly cloudy
Temperature: 57 F (14 C)
Dew Point: 57 F (14 C)
Relative Humidity: 100%
Pressure (altimeter): 30.12 in. Hg (1020 hPa)
ob: EGPI 121950Z AUTO 17012KT 130V200 7000 FEW017/// BKN027/// 14/14 Q1020 RERA
cycle: 20

Station Type Date Time Source
EGPI TAF UTC NOAA

Error!

Example: see airport list